Time;durP1;ratioP1;P1;durP2;ratioP2;P2;SDS_P1;SDS_P2;PMS_P1;PMS_P2;Temp;Humidity;BMP_temperature;BMP_pressure;BME280_temperature;BME280_humidity;BME280_pressure;Samples;Min_cycle;Max_cycle;Signal;HPM_P1;HPM_P2
2022/09/10 00:09:51;;;;;;;6.87;4.20;;;;;;;;;;4998683;28;20583;-79
2022/09/10 00:12:41;;;;;;;10.40;3.43;;;;;;;;;;5000098;28;20456;-79
2022/09/10 00:15:16;;;;;;;4.23;3.30;;;;;;;;;;4991088;28;20715;-78
2022/09/10 00:17:56;;;;;;;3.40;2.57;;;;;;;;;;5006863;28;20463;-78
2022/09/10 00:20:39;;;;;;;6.37;3.73;;;;;;;;;;4996363;28;20476;-80
2022/09/10 00:23:30;;;;;;;9.83;4.57;;;;;;;;;;4978905;28;20459;-78
2022/09/10 00:26:30;;;;;;;8.37;3.53;;;;;;;;;;4978802;28;20719;-80
2022/09/10 00:29:05;;;;;;;4.93;3.47;;;;;;;;;;4979614;28;20493;-80
2022/09/10 00:31:49;;;;;;;6.03;3.67;;;;;;;;;;4980393;28;20824;-79
2022/09/10 00:34:20;;;;;;;7.23;3.90;;;;;;;;;;4979765;28;20509;-79
2022/09/10 00:36:53;;;;;;;4.80;3.47;;;;;;;;;;4981222;28;20964;-79
2022/09/10 00:40:02;;;;;;;3.63;2.60;;;;;;;;;;4978748;28;20469;-79
2022/09/10 00:42:32;;;;;;;4.23;3.47;;;;;;;;;;4983124;28;20461;-79
2022/09/10 00:45:15;;;;;;;6.00;3.70;;;;;;;;;;4981374;28;20462;-79
2022/09/10 00:50:56;;;;;;;8.83;4.00;;;;;;;;;;4980287;28;20449;-80
2022/09/10 00:53:39;;;;;;;5.83;3.60;;;;;;;;;;4980204;28;20437;-80
2022/09/10 00:56:17;;;;;;;10.50;4.20;;;;;;;;;;4978381;28;20460;-79
2022/09/10 00:58:59;;;;;;;6.13;3.23;;;;;;;;;;4979968;28;20882;-80
2022/09/10 01:01:29;;;;;;;8.80;5.77;;;;;;;;;;4983325;28;20480;-80
2022/09/10 01:04:14;;;;;;;7.40;4.03;;;;;;;;;;4980356;28;20457;-79
2022/09/10 01:07:14;;;;;;;6.90;3.80;;;;;;;;;;5000081;28;20492;-80
2022/09/10 01:09:59;;;;;;;4.93;3.70;;;;;;;;;;5002926;28;20622;-78
2022/09/10 01:12:59;;;;;;;5.13;3.30;;;;;;;;;;4999979;28;20476;-80
2022/09/10 01:15:39;;;;;;;6.83;4.10;;;;;;;;;;4968021;28;20484;-80
2022/09/10 01:18:22;;;;;;;6.00;3.70;;;;;;;;;;4998669;28;20436;-80
2022/09/10 01:21:12;;;;;;;5.60;3.53;;;;;;;;;;5001600;28;20467;-78
2022/09/10 01:24:04;;;;;;;4.17;2.97;;;;;;;;;;5000954;28;20479;-79
2022/09/10 01:26:54;;;;;;;7.03;4.27;;;;;;;;;;4992477;28;20551;-79
2022/09/10 01:29:38;;;;;;;6.73;4.00;;;;;;;;;;4999029;28;20452;-79
2022/09/10 01:32:15;;;;;;;6.23;3.33;;;;;;;;;;4997932;28;20471;-79
2022/09/10 01:34:51;;;;;;;6.07;3.13;;;;;;;;;;4997676;28;20456;-79
2022/09/10 01:37:37;;;;;;;4.50;3.37;;;;;;;;;;5000513;28;20788;-79
2022/09/10 01:40:09;;;;;;;5.27;3.10;;;;;;;;;;4999272;28;20452;-79
2022/09/10 01:42:38;;;;;;;5.47;3.43;;;;;;;;;;4998474;28;20457;-79
2022/09/10 01:45:15;;;;;;;2.80;2.40;;;;;;;;;;4999862;28;20452;-79
2022/09/10 01:48:09;;;;;;;5.53;3.20;;;;;;;;;;4999400;28;20490;-78
2022/09/10 01:53:54;;;;;;;4.47;3.13;;;;;;;;;;4996316;28;20519;-80
2022/09/10 01:56:44;;;;;;;;;;;;;;;;;;;;;
2022/09/10 01:59:24;;;;;;;3.30;2.60;;;;;;;;;;4977458;28;20539;-80
2022/09/10 02:01:58;;;;;;;5.53;3.20;;;;;;;;;;4997067;28;20515;-78
2022/09/10 02:04:28;;;;;;;4.43;3.60;;;;;;;;;;4995092;28;20457;-78
2022/09/10 02:07:00;;;;;;;3.97;3.47;;;;;;;;;;5001392;28;20460;-79
2022/09/10 02:09:28;;;;;;;5.53;3.10;;;;;;;;;;4998534;28;20456;-79
2022/09/10 02:11:58;;;;;;;3.80;3.40;;;;;;;;;;4998826;28;20464;-79
2022/09/10 02:14:26;;;;;;;4.60;2.80;;;;;;;;;;4998085;28;20452;-79
2022/09/10 02:16:57;;;;;;;3.80;3.13;;;;;;;;;;4998553;28;20508;-79
2022/09/10 02:19:26;;;;;;;6.07;3.33;;;;;;;;;;4999921;28;20448;-79
2022/09/10 02:21:57;;;;;;;3.70;2.83;;;;;;;;;;4998559;28;20461;-78
2022/09/10 02:24:24;;;;;;;4.67;3.20;;;;;;;;;;4997173;28;20488;-79
2022/09/10 02:26:52;;;;;;;4.97;3.33;;;;;;;;;;4996988;28;20460;-78
2022/09/10 02:29:21;;;;;;;3.63;3.33;;;;;;;;;;4998144;28;20509;-79
2022/09/10 02:31:52;;;;;;;5.70;3.40;;;;;;;;;;4998056;28;20529;-79
2022/09/10 02:34:20;;;;;;;3.23;2.93;;;;;;;;;;4998790;28;20549;-79
2022/09/10 02:36:56;;;;;;;5.23;4.07;;;;;;;;;;4998348;28;20456;-78
2022/09/10 02:39:26;;;;;;;8.60;3.43;;;;;;;;;;4999843;28;20525;-79
2022/09/10 02:41:57;;;;;;;3.60;2.90;;;;;;;;;;5000753;28;20472;-79
2022/09/10 02:44:26;;;;;;;7.03;3.33;;;;;;;;;;5002488;28;20792;-78
2022/09/10 02:46:54;;;;;;;6.73;3.20;;;;;;;;;;5001336;28;20484;-79
2022/09/10 02:49:33;;;;;;;5.80;3.60;;;;;;;;;;5000130;28;20453;-79
2022/09/10 02:52:02;;;;;;;2.77;2.33;;;;;;;;;;4999386;28;20939;-78
2022/09/10 02:54:33;;;;;;;3.70;3.30;;;;;;;;;;5001182;28;20490;-79
2022/09/10 02:57:04;;;;;;;5.57;3.67;;;;;;;;;;5000251;28;20566;-79
2022/09/10 02:59:33;;;;;;;4.20;2.90;;;;;;;;;;4999702;28;20513;-79
2022/09/10 03:02:05;;;;;;;13.03;3.97;;;;;;;;;;4997022;28;20858;-79
2022/09/10 03:04:34;;;;;;;4.07;3.67;;;;;;;;;;4998094;28;20925;-79
2022/09/10 03:07:02;;;;;;;4.37;3.00;;;;;;;;;;4999062;28;20463;-79
2022/09/10 03:09:30;;;;;;;7.43;3.70;;;;;;;;;;4997047;28;20579;-79
2022/09/10 03:12:00;;;;;;;9.27;3.43;;;;;;;;;;5000371;28;20495;-78
2022/09/10 03:14:29;;;;;;;3.97;3.57;;;;;;;;;;4997074;28;20456;-78
2022/09/10 03:16:59;;;;;;;3.80;2.93;;;;;;;;;;4997088;28;20464;-78
2022/09/10 03:19:30;;;;;;;4.20;3.40;;;;;;;;;;4996176;28;20452;-78
2022/09/10 03:21:59;;;;;;;5.17;4.07;;;;;;;;;;4996996;28;20546;-78
2022/09/10 03:24:28;;;;;;;4.40;3.40;;;;;;;;;;4997729;28;20448;-79
2022/09/10 03:27:01;;;;;;;4.63;3.93;;;;;;;;;;4997674;28;20475;-78
2022/09/10 03:29:33;;;;;;;3.30;2.90;;;;;;;;;;4997786;28;20459;-79
2022/09/10 03:32:01;;;;;;;4.90;3.43;;;;;;;;;;4997106;28;20456;-78
2022/09/10 03:34:29;;;;;;;6.10;3.33;;;;;;;;;;4997881;28;20487;-80
2022/09/10 03:36:56;;;;;;;7.40;3.43;;;;;;;;;;4997094;28;20605;-78
2022/09/10 03:39:24;;;;;;;6.47;3.43;;;;;;;;;;4994993;28;20459;-77
2022/09/10 03:41:52;;;;;;;3.73;3.17;;;;;;;;;;4994591;28;20456;-79
2022/09/10 03:44:19;;;;;;;3.93;3.53;;;;;;;;;;4995231;28;20521;-78
2022/09/10 03:46:48;;;;;;;4.87;3.20;;;;;;;;;;4995681;28;20558;-78
2022/09/10 03:49:17;;;;;;;4.30;3.33;;;;;;;;;;4995988;28;20472;-78
2022/09/10 03:51:45;;;;;;;4.07;3.67;;;;;;;;;;4997040;28;20461;-78
2022/09/10 03:54:16;;;;;;;3.53;3.23;;;;;;;;;;4999256;28;20467;-77
2022/09/10 03:56:44;;;;;;;3.80;3.10;;;;;;;;;;5005173;28;20551;-78
2022/09/10 03:59:13;;;;;;;3.77;2.63;;;;;;;;;;5001549;28;20484;-78
2022/09/10 04:01:41;;;;;;;4.10;3.07;;;;;;;;;;4997780;28;20456;-78
2022/09/10 04:04:09;;;;;;;4.43;2.33;;;;;;;;;;4998665;28;20468;-78
2022/09/10 04:06:39;;;;;;;4.23;3.10;;;;;;;;;;4998841;28;20444;-77
2022/09/10 04:09:06;;;;;;;5.90;3.70;;;;;;;;;;4997845;28;20583;-78
2022/09/10 04:11:34;;;;;;;4.87;3.23;;;;;;;;;;4999135;28;20448;-78
2022/09/10 04:14:02;;;;;;;3.80;3.07;;;;;;;;;;4998057;28;20448;-79
2022/09/10 04:16:31;;;;;;;3.73;3.00;;;;;;;;;;5001244;28;20452;-77
2022/09/10 04:18:58;;;;;;;4.97;3.13;;;;;;;;;;4999044;28;20555;-78
2022/09/10 04:21:27;;;;;;;3.73;2.80;;;;;;;;;;5000805;28;20766;-78
2022/09/10 04:23:55;;;;;;;5.70;3.63;;;;;;;;;;4999067;28;20566;-78
2022/09/10 04:26:24;;;;;;;4.30;3.37;;;;;;;;;;4998294;28;20731;-78
2022/09/10 04:28:57;;;;;;;3.50;2.53;;;;;;;;;;4996210;28;20491;-77
2022/09/10 04:31:27;;;;;;;5.13;3.33;;;;;;;;;;4997233;28;20444;-78
2022/09/10 04:34:00;;;;;;;4.80;3.37;;;;;;;;;;4996652;28;20472;-77
2022/09/10 04:36:28;;;;;;;5.20;3.43;;;;;;;;;;4996584;28;20569;-78
2022/09/10 04:39:00;;;;;;;5.73;2.97;;;;;;;;;;4996287;28;20489;-78
2022/09/10 04:41:27;;;;;;;4.77;2.87;;;;;;;;;;4996220;28;20460;-77
2022/09/10 04:43:59;;;;;;;8.03;3.03;;;;;;;;;;4995088;28;20440;-77
2022/09/10 04:46:26;;;;;;;3.33;3.03;;;;;;;;;;4996053;28;20463;-76
2022/09/10 04:48:54;;;;;;;4.23;3.10;;;;;;;;;;4995910;28;20523;-78
2022/09/10 04:51:22;;;;;;;3.93;3.10;;;;;;;;;;4995605;28;20939;-77
2022/09/10 04:53:50;;;;;;;5.30;3.20;;;;;;;;;;4995045;28;20499;-77
2022/09/10 04:56:18;;;;;;;3.87;2.97;;;;;;;;;;4994701;28;20472;-77
2022/09/10 04:58:55;;;;;;;6.10;3.30;;;;;;;;;;4996990;28;21056;-77
2022/09/10 05:01:24;;;;;;;4.20;2.70;;;;;;;;;;4995811;28;20468;-77
2022/09/10 05:04:09;;;;;;;6.90;3.27;;;;;;;;;;4996453;28;20449;-77
2022/09/10 05:06:38;;;;;;;4.27;3.77;;;;;;;;;;4995286;28;20482;-77
2022/09/10 05:09:07;;;;;;;6.83;2.73;;;;;;;;;;4998815;28;20495;-78
2022/09/10 05:11:36;;;;;;;3.40;2.47;;;;;;;;;;4998210;28;20460;-77
2022/09/10 05:14:03;;;;;;;6.23;3.13;;;;;;;;;;5000877;28;20463;-77
2022/09/10 05:16:31;;;;;;;4.70;2.80;;;;;;;;;;5000662;28;20469;-77
2022/09/10 05:19:05;;;;;;;3.10;2.50;;;;;;;;;;4997688;28;20444;-77
2022/09/10 05:21:32;;;;;;;4.20;2.60;;;;;;;;;;4996537;28;20449;-77
2022/09/10 05:24:02;;;;;;;3.63;2.87;;;;;;;;;;4995454;28;20493;-75
2022/09/10 05:26:30;;;;;;;6.67;3.20;;;;;;;;;;4998254;28;20552;-77
2022/09/10 05:28:58;;;;;;;4.80;3.43;;;;;;;;;;4998724;28;20780;-77
2022/09/10 05:31:26;;;;;;;5.03;3.03;;;;;;;;;;4997246;28;20866;-77
2022/09/10 05:34:00;;;;;;;4.83;2.70;;;;;;;;;;4996456;28;20845;-78
2022/09/10 05:36:27;;;;;;;7.70;2.83;;;;;;;;;;4994431;28;20475;-77
2022/09/10 05:38:54;;;;;;;3.50;2.83;;;;;;;;;;4997317;28;20801;-78
2022/09/10 05:41:24;;;;;;;3.43;2.53;;;;;;;;;;4996694;28;20459;-77
2022/09/10 05:43:54;;;;;;;4.07;2.57;;;;;;;;;;4997389;28;20455;-77
2022/09/10 05:46:24;;;;;;;4.13;2.50;;;;;;;;;;4996421;28;20882;-77
2022/09/10 05:48:55;;;;;;;3.87;2.43;;;;;;;;;;4996070;28;20519;-77
2022/09/10 05:51:28;;;;;;;3.93;2.80;;;;;;;;;;4995697;28;20940;-78
2022/09/10 05:53:59;;;;;;;4.93;2.73;;;;;;;;;;4995941;28;20559;-78
2022/09/10 05:56:27;;;;;;;4.60;3.07;;;;;;;;;;4985737;28;20460;-78
2022/09/10 05:58:54;;;;;;;3.47;2.53;;;;;;;;;;4979878;28;20461;-77
2022/09/10 06:01:22;;;;;;;7.43;2.60;;;;;;;;;;4979566;28;20472;-77
2022/09/10 06:03:50;;;;;;;4.77;2.97;;;;;;;;;;4983696;28;20437;-78
2022/09/10 06:06:21;;;;;;;4.07;2.83;;;;;;;;;;4979034;28;20464;-78
2022/09/10 06:08:55;;;;;;;10.60;3.57;;;;;;;;;;4975340;28;20485;-76
2022/09/10 06:11:23;;;;;;;3.70;3.03;;;;;;;;;;4976257;28;20472;-77
2022/09/10 06:13:51;;;;;;;6.10;2.83;;;;;;;;;;4973901;28;20556;-77
2022/09/10 06:16:18;;;;;;;2.83;2.50;;;;;;;;;;4986436;28;21140;-76
2022/09/10 06:18:46;;;;;;;3.30;2.77;;;;;;;;;;4976701;28;20459;-77
2022/09/10 06:21:14;;;;;;;3.60;2.70;;;;;;;;;;4976774;28;20742;-76
2022/09/10 06:23:42;;;;;;;10.20;3.83;;;;;;;;;;4977202;28;20628;-77
2022/09/10 06:26:11;;;;;;;3.50;3.03;;;;;;;;;;4976908;28;20493;-76
2022/09/10 06:28:39;;;;;;;3.93;2.80;;;;;;;;;;4976542;28;20485;-76
2022/09/10 06:31:09;;;;;;;8.00;3.47;;;;;;;;;;4977385;28;20457;-76
2022/09/10 06:33:41;;;;;;;4.47;3.40;;;;;;;;;;4977668;28;20465;-76
2022/09/10 06:36:18;;;;;;;5.03;2.90;;;;;;;;;;4976414;28;20538;-76
2022/09/10 06:38:48;;;;;;;4.27;2.73;;;;;;;;;;5062855;28;20487;-76
2022/09/10 06:41:16;;;;;;;3.83;2.17;;;;;;;;;;5074774;28;20735;-76
2022/09/10 06:43:43;;;;;;;5.87;2.97;;;;;;;;;;5075950;28;20516;-76
2022/09/10 06:46:14;;;;;;;3.37;2.40;;;;;;;;;;5053310;28;20557;-76
2022/09/10 06:48:42;;;;;;;3.50;2.70;;;;;;;;;;4975591;28;20499;-77
2022/09/10 06:51:11;;;;;;;3.73;2.80;;;;;;;;;;4975594;28;20449;-76
2022/09/10 06:53:39;;;;;;;3.50;2.67;;;;;;;;;;4973981;28;20723;-75
2022/09/10 06:56:10;;;;;;;4.43;2.87;;;;;;;;;;4973225;28;20825;-76
2022/09/10 06:58:37;;;;;;;5.50;2.50;;;;;;;;;;4975074;28;20936;-76
2022/09/10 07:01:11;;;;;;;4.90;3.00;;;;;;;;;;4993235;28;20471;-76
2022/09/10 07:03:39;;;;;;;5.80;3.47;;;;;;;;;;4994861;28;20520;-77
2022/09/10 07:06:16;;;;;;;7.13;3.30;;;;;;;;;;4983335;28;20543;-75
2022/09/10 07:08:44;;;;;;;5.37;2.60;;;;;;;;;;4981283;28;20513;-76
2022/09/10 07:11:14;;;;;;;4.60;2.97;;;;;;;;;;4981665;28;20463;-76
2022/09/10 07:14:24;;;;;;;4.50;2.70;;;;;;;;;;4983954;28;20451;-77
2022/09/10 07:16:56;;;;;;;5.30;2.93;;;;;;;;;;4976718;28;20467;-75
2022/09/10 07:19:41;;;;;;;5.03;2.90;;;;;;;;;;4978648;28;20522;-76
2022/09/10 07:22:08;;;;;;;4.10;2.43;;;;;;;;;;4972877;28;20545;-75
2022/09/10 07:24:39;;;;;;;5.13;2.93;;;;;;;;;;4978293;28;20488;-76
2022/09/10 07:27:14;;;;;;;9.63;3.20;;;;;;;;;;4974551;28;20496;-75
2022/09/10 07:30:00;;;;;;;3.63;2.37;;;;;;;;;;4983368;28;20478;-77
2022/09/10 07:32:44;;;;;;;5.20;2.83;;;;;;;;;;4985098;28;20487;-75
2022/09/10 07:35:19;;;;;;;4.13;2.77;;;;;;;;;;4983536;28;20464;-75
2022/09/10 07:37:49;;;;;;;3.47;2.40;;;;;;;;;;4980510;28;20500;-74
2022/09/10 07:40:23;;;;;;;4.50;2.67;;;;;;;;;;5004486;28;20465;-75
2022/09/10 07:42:59;;;;;;;5.37;3.10;;;;;;;;;;4994942;28;20557;-75
2022/09/10 07:45:30;;;;;;;4.80;2.93;;;;;;;;;;4979804;28;20530;-76
2022/09/10 07:48:12;;;;;;;3.60;2.70;;;;;;;;;;4978758;28;20527;-75
2022/09/10 07:50:43;;;;;;;7.03;3.10;;;;;;;;;;4973057;28;20464;-77
2022/09/10 07:53:35;;;;;;;4.53;2.40;;;;;;;;;;5000183;28;20452;-76
2022/09/10 07:56:19;;;;;;;8.60;6.53;;;;;;;;;;4991200;28;20490;-77
2022/09/10 08:02:26;;;;;;;;;;;;;;;;;;;;;
2022/09/10 08:14:29;;;;;;;5.00;3.87;;;;;;;;;;4937773;28;20584;-76
2022/09/10 08:19:47;;;;;;;5.20;3.27;;;;;;;;;;4898995;29;20476;-77
2022/09/10 08:22:25;;;;;;;8.53;5.73;;;;;;;;;;4900003;29;20519;-76
2022/09/10 08:25:12;;;;;;;5.63;3.80;;;;;;;;;;4948200;28;20483;-77
2022/09/10 08:27:56;;;;;;;6.03;4.03;;;;;;;;;;4918914;28;20492;-76
2022/09/10 08:33:31;;;;;;;7.10;4.40;;;;;;;;;;4902585;28;20564;-75
2022/09/10 08:36:05;;;;;;;8.43;4.13;;;;;;;;;;4976230;28;20491;-77
2022/09/10 08:38:53;;;;;;;5.23;3.80;;;;;;;;;;4983977;28;20931;-76
2022/09/10 08:41:28;;;;;;;5.10;4.23;;;;;;;;;;4982373;28;20963;-76
2022/09/10 08:44:26;;;;;;;6.23;4.67;;;;;;;;;;4984062;28;20475;-76
2022/09/10 08:49:59;;;;;;;8.77;5.00;;;;;;;;;;4979122;28;20468;-75
2022/09/10 08:52:39;;;;;;;6.67;4.23;;;;;;;;;;4984083;28;20480;-76
2022/09/10 08:55:17;;;;;;;8.03;5.07;;;;;;;;;;4983520;28;20472;-77
2022/09/10 08:57:49;;;;;;;7.73;6.00;;;;;;;;;;4981542;28;20869;-77
2022/09/10 09:00:30;;;;;;;10.60;5.27;;;;;;;;;;4980559;28;20487;-78
2022/09/10 09:03:24;;;;;;;9.00;5.33;;;;;;;;;;4982402;28;20580;-77
2022/09/10 09:09:22;;;;;;;;;;;;;;;;;;;;;
2022/09/10 09:12:09;;;;;;;10.80;8.50;;;;;;;;;;4970552;28;20465;-77
2022/09/10 09:14:57;;;;;;;8.53;6.53;;;;;;;;;;4995976;28;20467;-77
2022/09/10 09:20:47;;;;;;;7.90;6.57;;;;;;;;;;5016736;28;20568;-77
2022/09/10 09:23:39;;;;;;;12.50;8.03;;;;;;;;;;5031406;28;20771;-77
2022/09/10 09:26:23;;;;;;;8.67;6.50;;;;;;;;;;5029852;28;20463;-78
2022/09/10 09:37:33;;;;;;;11.00;8.37;;;;;;;;;;4982580;28;20464;-78
2022/09/10 09:40:12;;;;;;;11.77;8.73;;;;;;;;;;4980516;28;20550;-77
2022/09/10 09:45:35;;;;;;;9.63;8.13;;;;;;;;;;4974238;28;20480;-77
2022/09/10 09:48:07;;;;;;;9.20;7.20;;;;;;;;;;4987737;28;20952;-77
2022/09/10 09:53:26;;;;;;;10.20;7.70;;;;;;;;;;4990686;28;20456;-74
2022/09/10 09:56:25;;;;;;;10.63;7.63;;;;;;;;;;4985180;28;20516;-76
2022/09/10 10:05:04;;;;;;;10.23;7.00;;;;;;;;;;4939770;28;20480;-76
2022/09/10 10:07:49;;;;;;;8.70;7.70;;;;;;;;;;4976027;28;20469;-77
2022/09/10 10:10:31;;;;;;;10.27;7.90;;;;;;;;;;4973181;28;20568;-77
2022/09/10 10:13:12;;;;;;;8.10;6.17;;;;;;;;;;4974469;28;20453;-77
2022/09/10 10:15:57;;;;;;;7.60;6.53;;;;;;;;;;4990170;28;20457;-77
2022/09/10 10:18:37;;;;;;;8.90;7.00;;;;;;;;;;4982918;28;20916;-77
2022/09/10 10:21:38;;;;;;;10.70;7.43;;;;;;;;;;5038123;28;20462;-77
2022/09/10 10:24:29;;;;;;;7.43;5.53;;;;;;;;;;5016315;28;20458;-77
2022/09/10 10:26:59;;;;;;;9.00;5.33;;;;;;;;;;4997881;28;20549;-79
2022/09/10 10:29:30;;;;;;;7.57;6.23;;;;;;;;;;4987377;28;20491;-76
2022/09/10 10:32:00;;;;;;;9.80;7.40;;;;;;;;;;4993736;28;20499;-76
2022/09/10 10:37:04;;;;;;;8.57;6.10;;;;;;;;;;5052705;28;20537;-77
2022/09/10 10:40:10;;;;;;;8.40;5.70;;;;;;;;;;4996931;28;20467;-75
2022/09/10 10:42:48;;;;;;;6.70;5.67;;;;;;;;;;4994249;28;20537;-76
2022/09/10 10:45:29;;;;;;;5.93;5.33;;;;;;;;;;4996499;28;20467;-75
2022/09/10 10:48:08;;;;;;;5.70;5.20;;;;;;;;;;4995593;28;20809;-76
2022/09/10 10:50:44;;;;;;;4.77;3.97;;;;;;;;;;4989315;28;20478;-76
2022/09/10 10:53:43;;;;;;;5.77;3.90;;;;;;;;;;4987285;28;20469;-77
2022/09/10 10:56:30;;;;;;;5.70;3.63;;;;;;;;;;4995684;28;20949;-78
2022/09/10 10:59:22;;;;;;;4.93;4.03;;;;;;;;;;4994222;28;20483;-78
2022/09/10 11:02:03;;;;;;;10.00;4.00;;;;;;;;;;4995071;28;20568;-78
2022/09/10 11:04:35;;;;;;;6.23;3.33;;;;;;;;;;4994873;28;20542;-77
2022/09/10 11:07:05;;;;;;;4.47;3.77;;;;;;;;;;5043772;28;20463;-76
2022/09/10 11:09:41;;;;;;;5.50;3.17;;;;;;;;;;5011285;28;20484;-77
2022/09/10 11:12:16;;;;;;;7.30;3.37;;;;;;;;;;4995420;28;20468;-77
2022/09/10 11:14:48;;;;;;;6.30;3.30;;;;;;;;;;4989667;28;20465;-77
2022/09/10 11:17:33;;;;;;;6.07;3.83;;;;;;;;;;5010966;28;20459;-77
2022/09/10 11:20:12;;;;;;;6.70;3.93;;;;;;;;;;4993545;28;20778;-77
2022/09/10 11:22:43;;;;;;;5.47;3.60;;;;;;;;;;4996653;28;20554;-77
2022/09/10 11:25:25;;;;;;;4.97;3.20;;;;;;;;;;4989463;28;20463;-77
2022/09/10 11:27:58;;;;;;;4.37;2.97;;;;;;;;;;5039517;28;20480;-77
2022/09/10 11:30:29;;;;;;;5.43;2.70;;;;;;;;;;4991427;28;20878;-77
2022/09/10 11:33:07;;;;;;;3.10;2.60;;;;;;;;;;4982696;28;20464;-76
2022/09/10 11:35:45;;;;;;;7.77;5.77;;;;;;;;;;4985839;28;20552;-77
2022/09/10 11:38:17;;;;;;;5.83;3.10;;;;;;;;;;4994413;28;20450;-74
2022/09/10 11:40:58;;;;;;;6.57;3.03;;;;;;;;;;4978895;28;20913;-75
2022/09/10 11:43:40;;;;;;;3.40;2.70;;;;;;;;;;4980525;28;20468;-77
2022/09/10 11:49:05;;;;;;;5.30;3.40;;;;;;;;;;4999138;28;20510;-75
2022/09/10 11:51:42;;;;;;;3.30;3.00;;;;;;;;;;5043943;28;20449;-77
2022/09/10 11:54:26;;;;;;;3.90;2.97;;;;;;;;;;4995117;28;20467;-76
2022/09/10 11:57:17;;;;;;;4.23;3.67;;;;;;;;;;4984607;28;20464;-76
2022/09/10 12:00:07;;;;;;;5.37;3.83;;;;;;;;;;4987476;28;20618;-75
2022/09/10 12:05:58;;;;;;;10.17;5.83;;;;;;;;;;4975600;28;20465;-75
2022/09/10 12:08:37;;;;;;;6.57;4.63;;;;;;;;;;4993652;28;20913;-75
2022/09/10 12:11:20;;;;;;;8.73;5.67;;;;;;;;;;4990352;28;20456;-75
2022/09/10 12:13:51;;;;;;;5.57;4.50;;;;;;;;;;4987292;28;20543;-76
2022/09/10 12:16:28;;;;;;;4.37;3.27;;;;;;;;;;5011659;28;20504;-75
2022/09/10 12:19:11;;;;;;;3.93;3.53;;;;;;;;;;5024666;28;20563;-76
2022/09/10 12:21:49;;;;;;;9.13;4.07;;;;;;;;;;4978888;28;20571;-77
2022/09/10 12:24:25;;;;;;;7.43;4.57;;;;;;;;;;4996652;28;20958;-76
2022/09/10 12:26:54;;;;;;;8.87;5.60;;;;;;;;;;4990880;28;20467;-77
2022/09/10 12:29:26;;;;;;;7.00;5.33;;;;;;;;;;4996139;28;20560;-76
2022/09/10 12:32:17;;;;;;;4.93;3.90;;;;;;;;;;5034247;28;20558;-75
2022/09/10 12:34:48;;;;;;;7.20;4.97;;;;;;;;;;4987301;28;20456;-75
2022/09/10 12:37:26;;;;;;;5.10;4.47;;;;;;;;;;5069549;28;20506;-77
2022/09/10 12:40:17;;;;;;;4.40;3.63;;;;;;;;;;4988254;28;20472;-76
2022/09/10 12:42:45;;;;;;;9.27;6.00;;;;;;;;;;4989705;28;20571;-75
2022/09/10 12:45:52;;;;;;;7.63;5.33;;;;;;;;;;5034999;28;20525;-74
2022/09/10 12:48:24;;;;;;;6.73;4.80;;;;;;;;;;4992223;28;20488;-75
2022/09/10 12:50:53;;;;;;;13.93;5.33;;;;;;;;;;4993875;28;20471;-75
2022/09/10 12:53:39;;;;;;;5.60;4.10;;;;;;;;;;4996827;28;20448;-76
2022/09/10 12:56:18;;;;;;;7.43;4.47;;;;;;;;;;5001334;28;20525;-76
2022/09/10 12:58:53;;;;;;;10.83;6.30;;;;;;;;;;4985752;28;20477;-76
2022/09/10 13:01:29;;;;;;;5.67;4.50;;;;;;;;;;4983461;28;20464;-76
2022/09/10 13:03:59;;;;;;;8.40;4.93;;;;;;;;;;4984271;28;20467;-76
2022/09/10 13:06:40;;;;;;;6.37;4.70;;;;;;;;;;4984479;28;20521;-74
2022/09/10 13:09:25;;;;;;;4.10;3.07;;;;;;;;;;4992759;28;20568;-75
2022/09/10 13:11:56;;;;;;;5.10;3.77;;;;;;;;;;4975590;28;20497;-74
2022/09/10 13:14:44;;;;;;;6.43;4.80;;;;;;;;;;4998393;28;20472;-72
2022/09/10 13:17:30;;;;;;;7.37;5.47;;;;;;;;;;4990520;28;20463;-75
2022/09/10 13:23:20;;;;;;;5.80;4.30;;;;;;;;;;4988381;28;20468;-74
2022/09/10 13:25:52;;;;;;;5.00;4.50;;;;;;;;;;5005824;28;20850;-76
2022/09/10 13:28:39;;;;;;;7.77;4.43;;;;;;;;;;4988287;28;20494;-75
2022/09/10 13:31:20;;;;;;;5.53;4.70;;;;;;;;;;5033323;28;20455;-75
2022/09/10 13:33:58;;;;;;;12.10;4.60;;;;;;;;;;5001403;28;20526;-75
2022/09/10 13:36:33;;;;;;;5.23;4.50;;;;;;;;;;4973909;28;20468;-76
2022/09/10 13:39:18;;;;;;;12.47;5.00;;;;;;;;;;4972622;28;20445;-74
2022/09/10 13:42:05;;;;;;;5.63;5.03;;;;;;;;;;4980315;28;20472;-74
2022/09/10 13:44:56;;;;;;;11.83;6.93;;;;;;;;;;4984937;28;20464;-76
2022/09/10 13:47:35;;;;;;;12.33;7.47;;;;;;;;;;4990385;28;20448;-74
2022/09/10 13:53:09;;;;;;;8.23;4.73;;;;;;;;;;4981989;28;20465;-74
2022/09/10 13:55:57;;;;;;;5.37;3.63;;;;;;;;;;4980307;28;20460;-76
2022/09/10 13:58:27;;;;;;;7.70;3.43;;;;;;;;;;4991089;28;20461;-75
2022/09/10 14:01:02;;;;;;;5.80;3.00;;;;;;;;;;4994421;28;20464;-75
2022/09/10 14:03:35;;;;;;;4.90;3.50;;;;;;;;;;4998562;28;20508;-76
2022/09/10 14:06:04;;;;;;;4.60;3.63;;;;;;;;;;4979146;28;20899;-75
2022/09/10 14:08:37;;;;;;;9.40;6.50;;;;;;;;;;4969266;28;20485;-75
2022/09/10 14:11:07;;;;;;;3.60;3.30;;;;;;;;;;4976406;28;20457;-74
2022/09/10 14:13:42;;;;;;;5.27;3.90;;;;;;;;;;4974015;28;20473;-75
2022/09/10 14:16:11;;;;;;;3.77;3.47;;;;;;;;;;4974755;28;20463;-75
2022/09/10 14:18:44;;;;;;;3.63;2.90;;;;;;;;;;4982243;28;20553;-76
2022/09/10 14:21:13;;;;;;;17.47;13.33;;;;;;;;;;4981106;28;20475;-76
2022/09/10 14:23:43;;;;;;;5.13;3.97;;;;;;;;;;4981700;28;21065;-76
2022/09/10 14:26:16;;;;;;;4.40;3.37;;;;;;;;;;4989770;28;20471;-75
2022/09/10 14:28:53;;;;;;;4.43;3.63;;;;;;;;;;4990385;28;20553;-75
2022/09/10 14:31:25;;;;;;;4.20;3.80;;;;;;;;;;4996300;28;20467;-76
2022/09/10 14:34:50;;;;;;;5.13;4.73;;;;;;;;;;4989202;28;20479;-75
2022/09/10 14:37:41;;;;;;;5.90;3.90;;;;;;;;;;5024231;28;20525;-75
2022/09/10 14:40:18;;;;;;;4.77;4.27;;;;;;;;;;4989167;28;20476;-74
2022/09/10 14:42:48;;;;;;;3.83;3.43;;;;;;;;;;4988569;28;20458;-75
2022/09/10 14:45:34;;;;;;;7.33;4.10;;;;;;;;;;4989212;28;20475;-75
2022/09/10 14:48:01;;;;;;;6.53;4.97;;;;;;;;;;4991040;28;20898;-75
2022/09/10 14:50:34;;;;;;;5.53;4.30;;;;;;;;;;4989771;28;20464;-74
2022/09/10 14:53:02;;;;;;;6.00;4.70;;;;;;;;;;4991095;28;20484;-75
2022/09/10 14:55:32;;;;;;;4.80;3.90;;;;;;;;;;4989195;28;21004;-74
2022/09/10 14:58:03;;;;;;;4.93;4.13;;;;;;;;;;4991485;28;20472;-75
2022/09/10 15:00:31;;;;;;;8.93;4.57;;;;;;;;;;4997058;28;20468;-75
2022/09/10 15:03:02;;;;;;;4.73;3.80;;;;;;;;;;5056344;28;20922;-75
2022/09/10 15:05:30;;;;;;;5.00;4.07;;;;;;;;;;5012666;28;20459;-74
2022/09/10 15:07:57;;;;;;;6.30;4.80;;;;;;;;;;5032811;28;20472;-74
2022/09/10 15:10:33;;;;;;;5.53;4.07;;;;;;;;;;5016605;28;20484;-73
2022/09/10 15:13:06;;;;;;;5.80;3.87;;;;;;;;;;5002098;28;20501;-73
2022/09/10 15:15:33;;;;;;;6.23;4.50;;;;;;;;;;5088617;28;20439;-74
2022/09/10 15:18:03;;;;;;;5.20;4.20;;;;;;;;;;4997911;28;20487;-72
2022/09/10 15:20:41;;;;;;;5.67;4.17;;;;;;;;;;4990731;28;20543;-74
2022/09/10 15:23:11;;;;;;;4.00;3.43;;;;;;;;;;4989794;28;20460;-74
2022/09/10 15:25:40;;;;;;;4.43;3.70;;;;;;;;;;4988008;28;20544;-73
2022/09/10 15:28:08;;;;;;;7.00;4.30;;;;;;;;;;4989990;28;20500;-74
2022/09/10 15:30:40;;;;;;;5.07;3.60;;;;;;;;;;4977315;28;20933;-73
2022/09/10 15:33:12;;;;;;;5.07;3.50;;;;;;;;;;5042354;28;20512;-74
2022/09/10 15:35:41;;;;;;;4.87;4.10;;;;;;;;;;5090411;28;20484;-74
2022/09/10 15:38:12;;;;;;;4.43;4.03;;;;;;;;;;5089918;28;20467;-74
2022/09/10 15:40:52;;;;;;;6.80;4.80;;;;;;;;;;5086878;28;20463;-74
2022/09/10 15:43:21;;;;;;;7.43;4.00;;;;;;;;;;4995905;28;20449;-73
2022/09/10 15:46:01;;;;;;;4.50;3.63;;;;;;;;;;4975981;28;20770;-75
2022/09/10 15:48:32;;;;;;;4.40;3.80;;;;;;;;;;4972744;28;20666;-74
2022/09/10 15:51:02;;;;;;;6.00;4.90;;;;;;;;;;4985135;28;20462;-74
2022/09/10 15:53:31;;;;;;;5.80;3.30;;;;;;;;;;4993671;28;20920;-75
2022/09/10 15:55:59;;;;;;;4.10;3.67;;;;;;;;;;4995426;28;20718;-75
2022/09/10 15:58:27;;;;;;;4.30;3.70;;;;;;;;;;4989894;28;20459;-74
2022/09/10 16:00:55;;;;;;;4.00;3.50;;;;;;;;;;4989135;28;20567;-75
2022/09/10 16:03:24;;;;;;;5.70;3.77;;;;;;;;;;4993359;28;20547;-74
2022/09/10 16:05:54;;;;;;;5.77;3.87;;;;;;;;;;4988789;28;20469;-74
2022/09/10 16:08:22;;;;;;;4.40;3.83;;;;;;;;;;4987771;28;20858;-75
2022/09/10 16:10:49;;;;;;;6.33;4.00;;;;;;;;;;4989469;28;21148;-74
2022/09/10 16:13:19;;;;;;;6.80;4.63;;;;;;;;;;4990281;28;20484;-74
2022/09/10 16:15:57;;;;;;;5.17;4.50;;;;;;;;;;4972858;28;20461;-74
2022/09/10 16:18:25;;;;;;;5.83;4.17;;;;;;;;;;4970724;28;20453;-75
2022/09/10 16:20:52;;;;;;;7.13;4.80;;;;;;;;;;4968762;28;20925;-74
2022/09/10 16:23:19;;;;;;;5.23;4.33;;;;;;;;;;4970534;28;20456;-75
2022/09/10 16:25:52;;;;;;;6.50;5.37;;;;;;;;;;4966351;28;20471;-75
2022/09/10 16:28:22;;;;;;;8.37;5.77;;;;;;;;;;4969093;28;20504;-75
2022/09/10 16:30:57;;;;;;;6.83;4.70;;;;;;;;;;4967105;28;20817;-75
2022/09/10 16:33:25;;;;;;;5.17;4.67;;;;;;;;;;4966494;28;20448;-75
2022/09/10 16:35:53;;;;;;;6.40;5.23;;;;;;;;;;4966408;28;20571;-75
2022/09/10 16:38:21;;;;;;;6.67;5.13;;;;;;;;;;4968345;28;20465;-76
2022/09/10 16:40:49;;;;;;;8.97;5.90;;;;;;;;;;4973225;28;21391;-75
2022/09/10 16:43:17;;;;;;;5.27;4.77;;;;;;;;;;4987465;28;20481;-74
2022/09/10 16:45:50;;;;;;;5.67;4.40;;;;;;;;;;4989575;28;21022;-74
2022/09/10 16:48:18;;;;;;;6.13;4.77;;;;;;;;;;4992908;28;20480;-74
2022/09/10 16:50:48;;;;;;;4.63;4.03;;;;;;;;;;4995431;28;20464;-75